createdAt,value
2022-08-12T00:04:59.897Z,17.90
2022-08-12T00:10:23.585Z,17.90
2022-08-12T00:15:46.252Z,17.80
2022-08-12T00:21:08.397Z,17.64
2022-08-12T00:26:34.134Z,17.60
2022-08-12T00:31:55.872Z,17.50
2022-08-12T00:37:17.618Z,17.50
2022-08-12T00:42:24.236Z,17.50
2022-08-12T00:47:27.420Z,17.40
2022-08-12T00:52:31.072Z,17.30
2022-08-12T00:57:37.239Z,17.20
2022-08-12T01:02:47.427Z,17.10
2022-08-12T01:08:10.793Z,17.10
2022-08-12T01:13:19.407Z,17.10
2022-08-12T01:18:28.335Z,17.10
2022-08-12T01:24:30.327Z,16.96
2022-08-12T01:29:36.597Z,16.88
2022-08-12T01:34:57.019Z,16.80
2022-08-12T01:40:34.914Z,16.70
2022-08-12T01:45:29.855Z,16.50
2022-08-12T01:52:04.630Z,16.54
2022-08-12T01:56:49.488Z,16.56
2022-08-12T02:01:57.092Z,16.40
2022-08-12T02:07:55.833Z,16.32
2022-08-12T02:13:52.101Z,16.30
2022-08-12T02:19:31.729Z,16.20
2022-08-12T02:24:42.671Z,16.06
2022-08-12T02:29:46.142Z,16.10
2022-08-12T02:34:50.595Z,16.14
2022-08-12T02:40:00.217Z,16.00
2022-08-12T02:45:09.230Z,15.90
2022-08-12T02:50:18.019Z,15.80
2022-08-12T02:55:34.290Z,15.80
2022-08-12T03:00:40.622Z,15.80
2022-08-12T03:06:16.073Z,15.90
2022-08-12T03:12:05.262Z,15.90
2022-08-12T03:17:24.559Z,15.90
2022-08-12T03:22:32.359Z,15.78
2022-08-12T03:27:51.952Z,15.70
2022-08-12T03:32:58.539Z,15.70
2022-08-12T03:38:08.780Z,15.60
2022-08-12T03:43:42.657Z,15.70
2022-08-12T03:49:05.013Z,15.70
2022-08-12T04:00:58.819Z,15.60
2022-08-12T04:06:02.145Z,15.62
2022-08-12T04:11:27.029Z,15.70
2022-08-12T04:16:33.707Z,15.80
2022-08-12T04:21:38.289Z,15.90
2022-08-12T04:27:02.799Z,15.90
2022-08-12T04:32:07.549Z,15.90
2022-08-12T04:37:12.815Z,15.84
2022-08-12T04:42:16.520Z,15.80
2022-08-12T04:47:22.268Z,15.78
2022-08-12T04:52:34.391Z,15.98
2022-08-12T04:57:38.979Z,16.20
2022-08-12T05:02:43.014Z,16.30
2022-08-12T05:07:54.683Z,16.40
2022-08-12T05:13:02.917Z,16.50
2022-08-12T05:18:20.401Z,17.00
2022-08-12T05:23:23.898Z,17.36
2022-08-12T05:28:30.523Z,17.40
2022-08-12T05:33:38.713Z,17.50
2022-08-12T05:38:56.550Z,17.50
2022-08-12T05:44:08.034Z,17.70
2022-08-12T05:49:11.677Z,18.10
2022-08-12T05:54:16.709Z,18.40
2022-08-12T05:59:21.861Z,18.60
2022-08-12T06:04:25.076Z,18.80
2022-08-12T06:09:31.127Z,19.00
2022-08-12T06:14:38.739Z,19.20
2022-08-12T06:20:27.229Z,19.50
2022-08-12T06:25:07.908Z,19.70
2022-08-12T06:30:18.559Z,19.90
2022-08-12T06:35:49.513Z,20.18
2022-08-12T06:41:20.400Z,20.40
2022-08-12T06:46:27.118Z,20.60
2022-08-12T06:51:32.646Z,20.80
2022-08-12T07:02:00.083Z,21.30
2022-08-12T07:07:05.831Z,21.60
2022-08-12T07:12:17.360Z,21.82
2022-08-12T07:17:20.558Z,22.02
2022-08-12T07:22:23.751Z,22.26
2022-08-12T07:27:27.677Z,22.50
2022-08-12T07:32:30.945Z,22.70
2022-08-12T07:37:35.444Z,22.90
2022-08-12T07:42:41.764Z,23.20
2022-08-12T07:47:45.346Z,23.40
2022-08-12T07:52:49.146Z,23.54
2022-08-12T07:57:59.503Z,23.80
2022-08-12T08:03:02.940Z,24.00
2022-08-12T08:08:25.299Z,24.26
2022-08-12T08:13:28.514Z,24.52
2022-08-12T08:18:33.376Z,24.76
2022-08-12T08:23:57.576Z,24.90
2022-08-12T08:29:03.120Z,25.00
2022-08-12T08:34:49.371Z,25.20
2022-08-12T08:39:32.177Z,25.40
2022-08-12T08:44:39.633Z,25.50
2022-08-12T08:49:42.805Z,25.72
2022-08-12T08:54:47.931Z,26.00
2022-08-12T08:59:51.739Z,26.10
2022-08-12T09:05:13.858Z,26.40
2022-08-12T09:10:30.718Z,26.50
2022-08-12T09:15:36.761Z,26.50
2022-08-12T09:20:42.363Z,26.70
2022-08-12T09:25:48.653Z,27.08
2022-08-12T09:30:54.115Z,27.18
2022-08-12T09:36:05.634Z,27.38
2022-08-12T09:42:33.817Z,27.50
2022-08-12T09:46:34.456Z,27.58
2022-08-12T09:51:43.715Z,27.80
2022-08-12T09:56:57.994Z,28.24
2022-08-12T10:02:45.959Z,28.70
2022-08-12T10:07:40.283Z,29.00
2022-08-12T10:13:09.284Z,29.00
2022-08-12T10:18:14.918Z,28.90
2022-08-12T10:23:18.575Z,29.00
2022-08-12T10:28:40.216Z,29.40
2022-08-12T10:33:54.922Z,29.90
2022-08-12T10:40:01.627Z,30.20
2022-08-12T10:44:36.724Z,29.90
2022-08-12T10:50:02.279Z,29.62
2022-08-12T10:55:03.289Z,29.86
2022-08-12T11:00:34.600Z,30.40
2022-08-12T11:07:06.646Z,30.60
2022-08-12T11:10:58.208Z,30.80
2022-08-12T11:16:19.103Z,30.70
2022-08-12T11:21:56.473Z,31.00
2022-08-12T11:26:52.024Z,31.36
2022-08-12T11:32:02.123Z,30.90
2022-08-12T11:37:25.756Z,31.00
2022-08-12T11:42:32.398Z,30.90
2022-08-12T11:47:50.003Z,31.30
2022-08-12T11:52:59.050Z,31.70
2022-08-12T11:58:39.366Z,32.20
2022-08-12T12:03:26.515Z,32.18
2022-08-12T12:08:52.956Z,32.16
2022-08-12T12:14:08.891Z,32.52
2022-08-12T12:19:14.499Z,33.00
2022-08-12T12:24:21.879Z,33.20
2022-08-12T12:30:13.574Z,32.70
2022-08-12T12:35:44.438Z,32.50
2022-08-12T12:40:14.573Z,32.50
2022-08-12T12:45:19.460Z,32.88
2022-08-12T12:50:35.272Z,33.10
2022-08-12T12:55:39.847Z,33.28
2022-08-12T13:00:51.033Z,33.90
2022-08-12T13:05:55.792Z,34.60
2022-08-12T13:11:04.362Z,34.70
2022-08-12T13:16:14.262Z,34.80
2022-08-12T13:21:32.800Z,35.30
2022-08-12T13:26:38.044Z,35.60
2022-08-12T13:32:13.530Z,34.96
2022-08-12T13:37:09.193Z,35.00
2022-08-12T13:42:14.586Z,34.68
2022-08-12T13:47:20.953Z,34.30
2022-08-12T13:52:25.708Z,34.96
2022-08-12T13:57:44.454Z,35.30
2022-08-12T14:02:53.330Z,34.80
2022-08-12T14:08:07.852Z,34.28
2022-08-12T14:13:16.933Z,34.32
2022-08-12T14:18:45.587Z,35.20
2022-08-12T14:24:04.726Z,35.40
2022-08-12T14:29:11.934Z,35.30
2022-08-12T14:34:35.206Z,35.30
2022-08-12T14:39:39.206Z,35.70
2022-08-12T14:44:58.039Z,35.46
2022-08-12T14:50:58.836Z,34.30
2022-08-12T15:01:15.847Z,33.60
2022-08-12T15:06:39.453Z,33.70
2022-08-12T15:11:55.751Z,33.84
2022-08-12T15:17:07.506Z,34.30
2022-08-12T15:22:37.519Z,34.40
2022-08-12T15:28:04.109Z,34.76
2022-08-12T15:32:58.563Z,34.40
2022-08-12T15:38:11.192Z,34.10
2022-08-12T15:43:51.658Z,33.78
2022-08-12T15:48:46.677Z,33.80
2022-08-12T15:54:05.858Z,33.70
2022-08-12T15:59:51.487Z,33.70
2022-08-12T16:04:52.735Z,33.30
2022-08-12T16:10:05.500Z,32.56
2022-08-12T16:15:14.901Z,32.10
2022-08-12T16:20:32.996Z,31.88
2022-08-12T16:26:03.005Z,31.70
2022-08-12T16:31:05.802Z,31.70
2022-08-12T16:36:18.809Z,31.72
2022-08-12T16:41:23.135Z,31.60
2022-08-12T16:46:32.515Z,31.60
2022-08-12T16:51:40.548Z,31.80
2022-08-12T16:56:55.006Z,31.80
2022-08-12T17:02:00.884Z,31.60
2022-08-12T17:07:10.994Z,31.30
2022-08-12T17:12:23.961Z,30.72
2022-08-12T17:17:39.162Z,30.20
2022-08-12T17:22:43.960Z,30.06
2022-08-12T17:27:57.515Z,29.80
2022-08-12T17:33:06.751Z,29.50
2022-08-12T17:38:14.119Z,29.20
2022-08-12T17:43:55.616Z,29.00
2022-08-12T17:48:55.350Z,28.90
2022-08-12T17:54:10.131Z,28.80
2022-08-12T17:59:47.869Z,28.60
2022-08-12T18:05:05.051Z,28.40
2022-08-12T18:10:12.081Z,28.30
2022-08-12T18:15:26.146Z,28.10
2022-08-12T18:20:45.036Z,27.90
2022-08-12T18:26:15.551Z,27.70
2022-08-12T18:31:44.407Z,27.50
2022-08-12T18:36:55.587Z,27.30
2022-08-12T18:42:00.146Z,27.10
2022-08-12T18:47:09.893Z,26.98
2022-08-12T18:52:17.874Z,26.70
2022-08-12T18:57:45.699Z,26.58
2022-08-12T19:02:53.355Z,26.40
2022-08-12T19:08:01.223Z,26.10
2022-08-12T19:13:25.531Z,26.00
2022-08-12T19:18:40.389Z,25.90
2022-08-12T19:23:44.537Z,25.90
2022-08-12T19:28:49.703Z,25.70
2022-08-12T19:34:25.435Z,25.50
2022-08-12T19:39:22.918Z,25.40
2022-08-12T19:44:28.899Z,25.20
2022-08-12T19:49:32.219Z,25.00
2022-08-12T19:54:37.225Z,24.80
2022-08-12T19:59:43.063Z,24.60
2022-08-12T20:06:06.791Z,24.50
2022-08-12T20:10:36.301Z,24.38
2022-08-12T20:15:44.906Z,24.20
2022-08-12T20:20:48.847Z,24.10
2022-08-12T20:26:01.879Z,23.90
2022-08-12T20:31:08.800Z,23.80
2022-08-12T20:36:41.611Z,23.70
2022-08-12T20:41:41.493Z,23.60
2022-08-12T20:46:45.425Z,23.50
2022-08-12T20:51:55.366Z,23.40
2022-08-12T20:57:00.960Z,23.40
2022-08-12T21:02:05.815Z,23.28
2022-08-12T21:07:11.395Z,23.20
2022-08-12T21:12:28.783Z,23.20
2022-08-12T21:18:08.715Z,23.10
2022-08-12T21:23:06.022Z,23.00
2022-08-12T21:28:09.546Z,22.90
2022-08-12T21:33:14.768Z,22.80
2022-08-12T21:38:20.402Z,22.78
2022-08-12T21:43:43.638Z,22.70
2022-08-12T21:48:49.797Z,22.70
2022-08-12T21:54:07.123Z,22.64
2022-08-12T21:59:14.526Z,22.60
2022-08-12T22:04:37.895Z,22.60
2022-08-12T22:09:42.883Z,22.50
2022-08-12T22:14:48.821Z,22.40
2022-08-12T22:19:52.089Z,22.40
2022-08-12T22:24:58.421Z,22.30
2022-08-12T22:30:20.517Z,22.20
2022-08-12T22:35:56.575Z,22.20
2022-08-12T22:41:27.657Z,22.20
2022-08-12T22:46:34.856Z,22.10
2022-08-12T22:51:59.696Z,22.00
2022-08-12T22:57:02.743Z,21.96
2022-08-12T23:02:07.737Z,21.90
2022-08-12T23:07:14.630Z,21.80
2022-08-12T23:12:41.169Z,21.76
2022-08-12T23:17:50.347Z,21.70
2022-08-12T23:23:03.058Z,21.70
2022-08-12T23:28:29.998Z,21.60
2022-08-12T23:34:00.773Z,21.50
2022-08-12T23:39:01.726Z,21.40
2022-08-12T23:44:06.922Z,21.40
2022-08-12T23:49:55.777Z,21.30
2022-08-12T23:54:38.990Z,21.20
2022-08-12T23:59:55.506Z,21.10
